Time;durP1;ratioP1;P1;durP2;ratioP2;P2;SDS_P1;SDS_P2;PMS_P1;PMS_P2;Temp;Humidity;BMP_temperature;BMP_pressure;BME280_temperature;BME280_humidity;BME280_pressure;Samples;Min_cycle;Max_cycle;Signal;HPM_P1;HPM_P2
2022/04/12 00:00:18;;;;;;;5.23;4.13;;;10.10;94.50;;;;;;5026418;28;21069;-70
2022/04/12 00:02:44;;;;;;;5.10;3.73;;;10.10;94.50;;;;;;5008758;28;20246;-68
2022/04/12 00:05:13;;;;;;;4.00;3.60;;;10.00;94.40;;;;;;5009396;28;20844;-69
2022/04/12 00:07:40;;;;;;;6.70;3.77;;;10.00;94.50;;;;;;5001461;28;20236;-68
2022/04/12 00:10:07;;;;;;;3.73;3.37;;;10.00;94.50;;;;;;5008598;28;20463;-68
2022/04/12 00:12:33;;;;;;;4.50;3.73;;;10.00;94.50;;;;;;5008774;28;20447;-68
2022/04/12 00:14:58;;;;;;;4.13;3.73;;;10.00;94.60;;;;;;4988581;28;21038;-69
2022/04/12 00:20:09;;;;;;;6.40;4.50;;;10.00;94.60;;;;;;5013107;28;20647;-69
2022/04/12 00:22:36;;;;;;;4.47;3.70;;;10.00;94.60;;;;;;5010430;28;20450;-69
2022/04/12 00:25:03;;;;;;;5.73;3.60;;;9.90;95.30;;;;;;5013791;28;20519;-69
2022/04/12 00:27:28;;;;;;;4.97;4.07;;;9.90;95.60;;;;;;5011309;28;20498;-68
2022/04/12 00:29:55;;;;;;;3.37;3.10;;;9.90;95.40;;;;;;5012256;28;20959;-68
2022/04/12 00:32:20;;;;;;;4.73;4.23;;;9.90;95.40;;;;;;5016780;28;20221;-67
2022/04/12 00:34:46;;;;;;;5.67;4.40;;;9.90;95.50;;;;;;4998370;28;20451;-68
2022/04/12 00:37:12;;;;;;;4.73;4.23;;;9.90;95.60;;;;;;5027741;28;20221;-73
2022/04/12 00:39:37;;;;;;;6.47;3.80;;;9.80;95.60;;;;;;5012838;28;20227;-69
2022/04/12 00:42:06;;;;;;;5.03;4.10;;;9.80;95.70;;;;;;5016028;28;20705;-69
2022/04/12 00:44:32;;;;;;;6.10;4.13;;;9.80;95.70;;;;;;5008852;28;20242;-69
2022/04/12 00:46:58;;;;;;;5.27;4.20;;;9.80;95.80;;;;;;5011417;28;20472;-69
2022/04/12 00:49:24;;;;;;;4.03;3.53;;;9.80;95.80;;;;;;5016642;28;20231;-69
2022/04/12 00:51:50;;;;;;;8.03;4.13;;;9.80;95.90;;;;;;5004298;28;20747;-69
2022/04/12 00:54:20;;;;;;;4.97;3.67;;;9.80;95.90;;;;;;5012303;28;20245;-69
2022/04/12 00:56:48;;;;;;;4.13;3.73;;;9.70;95.90;;;;;;5014749;28;20460;-68
2022/04/12 00:59:14;;;;;;;4.43;3.80;;;9.70;95.90;;;;;;5013346;28;20475;-69
2022/04/12 01:01:40;;;;;;;5.40;4.30;;;9.70;96.00;;;;;;5012807;28;20461;-68
2022/04/12 01:04:06;;;;;;;3.57;3.27;;;9.70;96.00;;;;;;5012406;28;20240;-68
2022/04/12 01:06:32;;;;;;;3.77;3.10;;;9.60;96.00;;;;;;5010025;28;20460;-69
2022/04/12 01:08:58;;;;;;;4.60;4.20;;;9.50;96.10;;;;;;5012933;28;20225;-67
2022/04/12 01:11:25;;;;;;;6.37;4.27;;;9.60;96.20;;;;;;5010529;28;20221;-69
2022/04/12 01:13:51;;;;;;;5.40;4.27;;;9.60;96.60;;;;;;5013263;28;20464;-69
2022/04/12 01:16:17;;;;;;;3.83;3.50;;;9.60;96.20;;;;;;5013302;28;20471;-69
2022/04/12 01:18:43;;;;;;;5.40;3.90;;;9.50;96.20;;;;;;4992290;28;20266;-68
2022/04/12 01:21:09;;;;;;;4.33;3.50;;;9.50;96.20;;;;;;5014228;28;20546;-70
2022/04/12 01:23:43;;;;;;;4.87;4.23;;;9.50;96.40;;;;;;5010245;28;20209;-69
2022/04/12 01:26:10;;;;;;;7.23;3.83;;;9.50;96.30;;;;;;5009738;28;20701;-69
2022/04/12 01:28:36;;;;;;;4.90;3.77;;;9.40;96.40;;;;;;4992806;28;20492;-68
2022/04/12 01:31:02;;;;;;;4.97;4.03;;;9.40;96.40;;;;;;5011606;28;20538;-69
2022/04/12 01:33:28;;;;;;;6.17;4.27;;;9.40;96.60;;;;;;4990733;28;20272;-72
2022/04/12 01:35:53;;;;;;;4.20;3.80;;;9.40;96.50;;;;;;4996328;28;20468;-70
2022/04/12 01:38:19;;;;;;;4.40;3.77;;;9.40;96.50;;;;;;4993626;28;20732;-69
2022/04/12 01:40:45;;;;;;;5.57;4.30;;;9.40;96.50;;;;;;5010480;28;20225;-69
2022/04/12 01:43:11;;;;;;;7.00;4.30;;;9.40;96.50;;;;;;5009996;28;20300;-74
2022/04/12 01:45:36;;;;;;;8.03;4.40;;;9.30;96.50;;;;;;5015898;28;20580;-68
2022/04/12 01:48:02;;;;;;;4.90;3.70;;;9.40;96.60;;;;;;5010249;28;20460;-69
2022/04/12 01:50:28;;;;;;;5.90;4.57;;;9.30;96.60;;;;;;5010234;28;20306;-68
2022/04/12 01:52:53;;;;;;;4.50;3.97;;;9.30;96.50;;;;;;5013096;28;20244;-68
2022/04/12 01:55:19;;;;;;;5.40;4.43;;;9.30;96.60;;;;;;5014761;28;20252;-69
2022/04/12 01:57:45;;;;;;;6.43;4.27;;;9.30;96.60;;;;;;5010097;28;20239;-68
2022/04/12 02:00:11;;;;;;;7.17;4.73;;;9.30;96.70;;;;;;5009671;28;20221;-69
2022/04/12 02:02:40;;;;;;;5.63;4.30;;;9.30;96.70;;;;;;5012740;28;20307;-69
2022/04/12 02:05:07;;;;;;;4.20;3.80;;;9.20;96.70;;;;;;5021288;28;20460;-69
2022/04/12 02:07:32;;;;;;;4.80;3.27;;;9.20;96.70;;;;;;5021086;28;21426;-69
2022/04/12 02:09:58;;;;;;;4.30;3.73;;;9.20;96.70;;;;;;5022088;28;20463;-70
2022/04/12 02:12:23;;;;;;;5.47;3.73;;;9.20;96.70;;;;;;4991791;28;20299;-67
2022/04/12 02:14:49;;;;;;;4.80;4.00;;;9.20;96.80;;;;;;5012511;28;20231;-69
2022/04/12 02:17:15;;;;;;;4.03;3.63;;;9.10;96.70;;;;;;5001936;28;20221;-70
2022/04/12 02:19:40;;;;;;;4.00;3.60;;;9.10;96.70;;;;;;5008992;28;20617;-71
2022/04/12 02:22:07;;;;;;;5.70;3.73;;;9.10;96.70;;;;;;5009101;28;20704;-69
2022/04/12 02:24:33;;;;;;;5.97;4.37;;;9.10;96.70;;;;;;5012584;28;20560;-69
2022/04/12 02:26:59;;;;;;;3.70;3.40;;;9.10;96.80;;;;;;5023094;28;20458;-68
2022/04/12 02:29:24;;;;;;;7.43;4.40;;;9.10;96.80;;;;;;5026107;28;20641;-69
2022/04/12 02:31:50;;;;;;;4.40;3.23;;;8.90;96.90;;;;;;5013334;28;20237;-72
2022/04/12 02:34:16;;;;;;;4.80;3.93;;;8.90;96.90;;;;;;5018622;28;20224;-73
2022/04/12 02:36:43;;;;;;;5.30;3.47;;;8.90;96.90;;;;;;5010618;28;20229;-71
2022/04/12 02:39:08;;;;;;;5.47;4.20;;;8.90;96.90;;;;;;5009869;28;20236;-72
2022/04/12 02:41:36;;;;;;;4.47;3.80;;;8.90;97.00;;;;;;5013461;28;20452;-71
2022/04/12 02:44:02;;;;;;;4.20;3.60;;;8.90;97.00;;;;;;5012033;28;20721;-68
2022/04/12 02:46:28;;;;;;;5.17;4.10;;;8.80;96.90;;;;;;5009932;28;20827;-70
2022/04/12 02:48:54;;;;;;;5.00;4.20;;;8.80;97.00;;;;;;4984005;28;20492;-68
2022/04/12 02:51:19;;;;;;;3.47;3.17;;;8.80;97.00;;;;;;5018730;28;20252;-68
2022/04/12 02:53:45;;;;;;;5.00;3.73;;;8.80;97.10;;;;;;5014467;28;20231;-69
2022/04/12 02:56:11;;;;;;;6.10;4.17;;;8.80;97.10;;;;;;5027072;28;20664;-68
2022/04/12 02:58:36;;;;;;;6.33;4.03;;;8.80;97.10;;;;;;5013828;28;20221;-69
2022/04/12 03:01:03;;;;;;;5.13;3.50;;;8.80;97.20;;;;;;5009522;28;20233;-69
2022/04/12 03:03:29;;;;;;;5.07;4.27;;;8.70;97.20;;;;;;5009832;28;20483;-69
2022/04/12 03:05:55;;;;;;;6.07;4.40;;;8.70;97.20;;;;;;4998890;28;20237;-72
2022/04/12 03:08:20;;;;;;;5.13;3.53;;;8.70;97.20;;;;;;5010552;28;20217;-71
2022/04/12 03:10:46;;;;;;;4.63;3.87;;;8.70;97.20;;;;;;5009255;28;20235;-70
2022/04/12 03:13:12;;;;;;;5.50;4.10;;;8.70;97.20;;;;;;5008576;28;20225;-68
2022/04/12 03:15:37;;;;;;;5.17;3.70;;;8.70;97.20;;;;;;5009652;28;20673;-69
2022/04/12 03:18:03;;;;;;;5.27;3.73;;;8.70;97.20;;;;;;5013083;28;20757;-68
2022/04/12 03:20:29;;;;;;;5.90;3.63;;;8.60;97.20;;;;;;5027958;28;20654;-69
2022/04/12 03:22:54;;;;;;;4.90;4.30;;;8.60;97.20;;;;;;5015082;28;20739;-68
2022/04/12 03:25:20;;;;;;;6.00;3.63;;;8.60;97.20;;;;;;5009023;28;20297;-69
2022/04/12 03:27:45;;;;;;;4.83;3.70;;;8.60;97.20;;;;;;4992314;28;20308;-68
2022/04/12 03:30:11;;;;;;;4.80;4.00;;;8.50;97.30;;;;;;5009085;28;20225;-68
2022/04/12 03:32:37;;;;;;;5.43;4.90;;;8.60;97.30;;;;;;5012782;28;20217;-70
2022/04/12 03:35:03;;;;;;;5.20;3.83;;;8.50;97.20;;;;;;5023639;28;20255;-68
2022/04/12 03:37:29;;;;;;;4.63;3.90;;;8.50;97.30;;;;;;5017715;28;20279;-71
2022/04/12 03:39:55;;;;;;;5.63;4.30;;;8.50;97.30;;;;;;5008684;28;20528;-70
2022/04/12 03:42:21;;;;;;;6.13;4.30;;;8.50;97.40;;;;;;5007846;28;20217;-69
2022/04/12 03:44:47;;;;;;;5.70;3.90;;;8.50;97.50;;;;;;5012151;28;20452;-68
2022/04/12 03:47:13;;;;;;;4.63;3.70;;;8.40;97.40;;;;;;5021620;28;20455;-70
2022/04/12 03:49:39;;;;;;;4.97;4.43;;;8.40;97.50;;;;;;5028549;28;20447;-70
2022/04/12 03:52:05;;;;;;;5.27;3.73;;;8.40;97.60;;;;;;5022181;28;20221;-70
2022/04/12 03:54:31;;;;;;;6.23;4.30;;;8.40;97.60;;;;;;5012273;28;20232;-69
2022/04/12 03:56:57;;;;;;;5.00;4.50;;;8.40;97.50;;;;;;5014896;28;20476;-69
2022/04/12 03:59:23;;;;;;;4.57;3.97;;;8.40;97.60;;;;;;5012694;28;20237;-68
2022/04/12 04:01:49;;;;;;;6.23;4.37;;;8.40;97.60;;;;;;5019607;28;20242;-69
2022/04/12 04:04:16;;;;;;;4.20;3.83;;;8.40;97.70;;;;;;5015503;28;20492;-70
2022/04/12 04:06:42;;;;;;;5.83;5.13;;;8.40;97.70;;;;;;5007112;28;20467;-69
2022/04/12 04:09:07;;;;;;;4.77;4.00;;;8.30;97.70;;;;;;5026617;28;20462;-69
2022/04/12 04:11:33;;;;;;;4.10;3.70;;;8.30;97.90;;;;;;5017490;28;20677;-67
2022/04/12 04:14:03;;;;;;;6.47;3.70;;;8.30;97.80;;;;;;5014965;28;20700;-68
2022/04/12 04:16:29;;;;;;;4.93;3.77;;;8.30;97.80;;;;;;5022171;28;20286;-69
2022/04/12 04:18:55;;;;;;;5.77;3.37;;;8.30;97.90;;;;;;5033246;28;20558;-69
2022/04/12 04:21:20;;;;;;;4.13;3.53;;;8.30;97.90;;;;;;5024234;28;20543;-68
2022/04/12 04:23:46;;;;;;;4.40;3.47;;;8.30;97.90;;;;;;5012251;28;20252;-71
2022/04/12 04:26:11;;;;;;;4.43;4.00;;;8.30;97.90;;;;;;5013503;28;20256;-68
2022/04/12 04:28:39;;;;;;;6.10;4.07;;;8.20;97.90;;;;;;5011075;28;20245;-67
2022/04/12 04:31:05;;;;;;;4.80;4.10;;;8.20;97.90;;;;;;5018587;28;20229;-68
2022/04/12 04:33:30;;;;;;;3.93;3.60;;;8.20;98.00;;;;;;5005025;28;20471;-69
2022/04/12 04:35:56;;;;;;;4.40;4.00;;;8.20;98.10;;;;;;5016091;28;20662;-67
2022/04/12 04:38:21;;;;;;;6.40;3.10;;;8.20;98.10;;;;;;5031274;28;20283;-68
2022/04/12 04:40:48;;;;;;;6.40;4.10;;;8.20;98.10;;;;;;5016989;28;20213;-67
2022/04/12 04:43:15;;;;;;;4.77;3.37;;;8.20;98.10;;;;;;4995719;28;20300;-68
2022/04/12 04:45:43;;;;;;;4.63;3.53;;;8.10;98.10;;;;;;5009491;28;20903;-69
2022/04/12 04:48:09;;;;;;;4.50;4.00;;;8.10;98.20;;;;;;5010913;28;20460;-70
2022/04/12 04:50:35;;;;;;;6.23;3.83;;;8.10;98.20;;;;;;5006792;28;20519;-70
2022/04/12 04:53:03;;;;;;;4.17;3.87;;;8.10;98.10;;;;;;5012020;28;20598;-68
2022/04/12 04:55:29;;;;;;;7.20;4.90;;;8.10;98.20;;;;;;5008384;28;20286;-68
2022/04/12 04:57:57;;;;;;;4.87;4.20;;;8.10;98.30;;;;;;5009768;28;21292;-68
2022/04/12 05:00:25;;;;;;;4.80;3.80;;;8.10;98.20;;;;;;4991215;28;20475;-69
2022/04/12 05:02:53;;;;;;;5.00;3.80;;;8.10;98.30;;;;;;5010127;28;20471;-68
2022/04/12 05:05:20;;;;;;;4.10;3.40;;;8.10;98.40;;;;;;5009361;28;20453;-68
2022/04/12 05:07:51;;;;;;;6.17;4.33;;;8.10;98.30;;;;;;4991454;28;20485;-68
2022/04/12 05:10:19;;;;;;;5.47;4.97;;;8.00;98.40;;;;;;5014857;28;20457;-66
2022/04/12 05:12:45;;;;;;;8.20;6.43;;;8.10;98.50;;;;;;5011764;28;20448;-71
2022/04/12 05:15:11;;;;;;;26.47;15.87;;;8.00;98.30;;;;;;5025099;28;20520;-68
2022/04/12 05:17:37;;;;;;;50.07;32.67;;;8.00;98.50;;;;;;5016936;28;20453;-69
2022/04/12 05:20:05;;;;;;;65.97;45.97;;;8.00;98.50;;;;;;5011074;28;20495;-69
2022/04/12 05:22:31;;;;;;;93.73;66.40;;;8.00;98.50;;;;;;4991328;28;20222;-69
2022/04/12 05:24:57;;;;;;;94.00;69.27;;;8.00;98.50;;;;;;5007612;28;20483;-69
2022/04/12 05:27:22;;;;;;;84.83;65.60;;;8.00;98.60;;;;;;5013854;28;20228;-71
2022/04/12 05:29:49;;;;;;;87.30;69.90;;;8.00;98.60;;;;;;4980741;28;20224;-69
2022/04/12 05:32:15;;;;;;;136.37;93.07;;;8.00;98.60;;;;;;5013468;28;20235;-70
2022/04/12 05:34:41;;;;;;;131.33;89.33;;;8.00;98.60;;;;;;5015600;28;20463;-71
2022/04/12 05:37:07;;;;;;;106.10;72.33;;;8.00;98.70;;;;;;5012564;28;20468;-71
2022/04/12 05:39:33;;;;;;;100.43;68.00;;;8.00;98.80;;;;;;5014010;28;20459;-70
2022/04/12 05:42:02;;;;;;;88.13;61.90;;;8.00;98.90;;;;;;5010988;28;20225;-68
2022/04/12 05:44:28;;;;;;;75.60;57.40;;;8.00;98.80;;;;;;5018477;28;20241;-67
2022/04/12 05:46:54;;;;;;;101.23;68.70;;;8.00;98.80;;;;;;5014573;28;20464;-69
2022/04/12 05:49:21;;;;;;;71.53;53.83;;;8.00;98.80;;;;;;5017361;28;20514;-67
2022/04/12 05:51:47;;;;;;;50.13;37.97;;;8.00;99.00;;;;;;5003830;28;20477;-68
2022/04/12 05:54:13;;;;;;;46.60;35.10;;;8.00;99.00;;;;;;5017615;28;20594;-70
2022/04/12 05:56:38;;;;;;;46.13;36.07;;;8.00;99.00;;;;;;5020630;28;20232;-68
2022/04/12 05:59:06;;;;;;;42.27;33.10;;;8.00;98.90;;;;;;5021124;28;20294;-71
2022/04/12 06:01:32;;;;;;;42.53;32.53;;;8.00;99.00;;;;;;5015391;28;20221;-70
2022/04/12 06:03:57;;;;;;;35.10;29.93;;;8.00;99.80;;;;;;5018113;28;20463;-71
2022/04/12 06:06:23;;;;;;;38.33;27.20;;;8.00;99.20;;;;;;4993800;28;20472;-67
2022/04/12 06:08:49;;;;;;;25.63;22.63;;;8.10;99.30;;;;;;4984964;28;20232;-69
2022/04/12 06:11:15;;;;;;;25.03;20.40;;;8.10;99.40;;;;;;5013503;28;20221;-69
2022/04/12 06:13:41;;;;;;;19.53;15.50;;;8.10;99.50;;;;;;5008370;28;20459;-68
2022/04/12 06:16:06;;;;;;;17.20;12.80;;;8.10;99.50;;;;;;5014727;28;20685;-69
2022/04/12 06:18:32;;;;;;;21.13;12.73;;;8.20;99.40;;;;;;5011623;28;20221;-69
2022/04/12 06:20:58;;;;;;;14.20;10.93;;;8.20;99.50;;;;;;5020196;28;20621;-71
2022/04/12 06:23:24;;;;;;;11.27;9.67;;;8.20;99.70;;;;;;5013087;28;20228;-69
2022/04/12 06:25:49;;;;;;;14.10;8.90;;;8.20;99.80;;;;;;5015101;28;20279;-68
2022/04/12 06:28:15;;;;;;;9.63;6.87;;;8.20;99.80;;;;;;4995984;28;20297;-68
2022/04/12 06:30:40;;;;;;;8.60;7.50;;;8.30;99.90;;;;;;5010472;28;20287;-71
2022/04/12 06:33:06;;;;;;;8.70;7.03;;;8.30;99.90;;;;;;5018682;28;20221;-68
2022/04/12 06:35:32;;;;;;;9.03;7.13;;;8.30;99.90;;;;;;5011545;28;20307;-68
2022/04/12 06:37:57;;;;;;;8.90;6.73;;;8.40;99.90;;;;;;5010480;28;20225;-68
2022/04/12 06:40:24;;;;;;;9.80;5.93;;;8.40;99.90;;;;;;5021818;28;20654;-69
2022/04/12 06:42:51;;;;;;;7.50;5.90;;;8.40;99.90;;;;;;5001843;28;20697;-69
2022/04/12 06:45:17;;;;;;;7.03;5.30;;;8.40;99.90;;;;;;5016379;28;20455;-69
2022/04/12 06:47:43;;;;;;;11.83;5.90;;;8.50;99.90;;;;;;5017813;28;20458;-71
2022/04/12 06:50:12;;;;;;;7.90;5.57;;;8.50;99.90;;;;;;5015956;28;20460;-71
2022/04/12 06:52:38;;;;;;;5.90;4.70;;;8.60;99.90;;;;;;5007059;28;20445;-69
2022/04/12 06:55:04;;;;;;;7.33;4.87;;;8.60;99.90;;;;;;5016104;28;20535;-70
2022/04/12 06:57:32;;;;;;;7.00;5.30;;;8.70;99.90;;;;;;5013780;28;21003;-70
2022/04/12 06:59:58;;;;;;;10.40;5.53;;;8.80;99.90;;;;;;5017575;28;20462;-70
2022/04/12 07:02:23;;;;;;;6.73;5.13;;;8.90;99.90;;;;;;5014083;28;20463;-70
2022/04/12 07:04:49;;;;;;;10.83;5.77;;;9.00;99.90;;;;;;5010393;28;20577;-68
2022/04/12 07:07:15;;;;;;;6.20;4.70;;;9.00;99.90;;;;;;5017665;28;20227;-72
2022/04/12 07:09:40;;;;;;;6.60;4.73;;;9.10;99.90;;;;;;5014624;28;20225;-71
2022/04/12 07:12:07;;;;;;;8.23;5.40;;;9.10;99.90;;;;;;5012691;28;20264;-69
2022/04/12 07:14:33;;;;;;;6.50;4.17;;;9.20;99.90;;;;;;5014122;28;20224;-70
2022/04/12 07:16:59;;;;;;;9.57;6.03;;;9.30;99.90;;;;;;5011394;28;20994;-71
2022/04/12 07:19:25;;;;;;;7.03;4.97;;;9.40;99.90;;;;;;5013494;28;20232;-70
2022/04/12 07:21:51;;;;;;;5.67;4.90;;;9.40;99.90;;;;;;4991439;28;20592;-69
2022/04/12 07:24:17;;;;;;;6.20;5.00;;;9.50;99.90;;;;;;5013897;28;20463;-70
2022/04/12 07:26:43;;;;;;;7.90;5.20;;;9.60;99.90;;;;;;5007716;28;20468;-69
2022/04/12 07:29:09;;;;;;;4.83;4.43;;;9.70;99.90;;;;;;5013792;28;20212;-68
2022/04/12 07:31:34;;;;;;;7.63;6.00;;;9.70;99.90;;;;;;5018147;28;20463;-71
2022/04/12 07:34:00;;;;;;;9.10;5.33;;;9.80;99.90;;;;;;5019158;28;20236;-68
2022/04/12 07:36:26;;;;;;;7.70;5.80;;;9.90;99.90;;;;;;5018303;28;20223;-69
2022/04/12 07:38:52;;;;;;;7.33;5.33;;;9.90;99.90;;;;;;5020617;28;20999;-70
2022/04/12 07:41:18;;;;;;;5.23;4.70;;;10.00;99.90;;;;;;5019583;28;20224;-72
2022/04/12 07:43:45;;;;;;;7.20;5.63;;;10.10;99.90;;;;;;5016279;28;20224;-72
2022/04/12 07:46:12;;;;;;;6.33;5.07;;;10.20;99.90;;;;;;5010288;28;20615;-70
2022/04/12 07:48:39;;;;;;;6.10;5.50;;;10.30;99.90;;;;;;5012398;28;20456;-70
2022/04/12 07:51:05;;;;;;;7.10;4.80;;;10.40;99.90;;;;;;5015472;28;20522;-70
2022/04/12 07:53:31;;;;;;;7.23;4.20;;;10.50;99.90;;;;;;5017326;28;20496;-73
2022/04/12 07:55:56;;;;;;;7.70;4.57;;;10.60;99.90;;;;;;5021661;28;20271;-70
2022/04/12 07:58:22;;;;;;;7.40;5.13;;;10.70;99.90;;;;;;5016903;28;20236;-71
2022/04/12 08:00:47;;;;;;;8.60;5.23;;;10.70;99.90;;;;;;5013429;28;20228;-71
2022/04/12 08:03:13;;;;;;;9.70;5.67;;;10.80;99.90;;;;;;5022775;28;20208;-69
2022/04/12 08:05:39;;;;;;;7.50;5.40;;;10.90;99.90;;;;;;5017256;28;20229;-69
2022/04/12 08:08:05;;;;;;;9.53;5.50;;;11.00;99.90;;;;;;5019446;28;20233;-69
2022/04/12 08:10:31;;;;;;;13.53;5.60;;;11.00;99.90;;;;;;5014220;28;20225;-69
2022/04/12 08:12:57;;;;;;;6.30;5.40;;;11.20;99.90;;;;;;5018481;28;20456;-69
2022/04/12 08:15:24;;;;;;;7.87;5.60;;;11.30;99.90;;;;;;5014378;28;20462;-69
2022/04/12 08:17:50;;;;;;;10.20;5.80;;;11.40;99.90;;;;;;5014877;28;20564;-69
2022/04/12 08:20:16;;;;;;;9.67;6.37;;;11.40;99.90;;;;;;5015358;28;20460;-69
2022/04/12 08:22:43;;;;;;;8.80;6.77;;;11.50;99.90;;;;;;5019163;28;20806;-69
2022/04/12 08:25:09;;;;;;;11.70;5.10;;;11.60;99.90;;;;;;5012864;28;20527;-70
2022/04/12 08:27:36;;;;;;;8.43;5.70;;;11.80;99.90;;;;;;5004618;28;20465;-71
2022/04/12 08:30:03;;;;;;;8.10;5.20;;;11.90;99.90;;;;;;4993225;28;20540;-69
2022/04/12 08:32:29;;;;;;;16.47;5.50;;;12.00;99.90;;;;;;5009016;28;20460;-69
2022/04/12 08:34:56;;;;;;;7.47;5.40;;;12.10;99.90;;;;;;5015608;28;21002;-69
2022/04/12 08:37:21;;;;;;;8.20;5.20;;;12.20;99.90;;;;;;5011338;28;20464;-69
2022/04/12 08:39:48;;;;;;;6.80;4.67;;;12.20;99.90;;;;;;5020004;28;20471;-70
2022/04/12 08:42:14;;;;;;;6.77;4.97;;;12.30;99.90;;;;;;5012631;28;20229;-69
2022/04/12 08:44:45;;;;;;;7.67;5.50;;;12.30;99.90;;;;;;4997236;28;20468;-69
2022/04/12 08:47:15;;;;;;;5.97;5.00;;;12.40;99.90;;;;;;5011537;28;20530;-71
2022/04/12 08:49:41;;;;;;;8.90;5.47;;;12.40;99.90;;;;;;5010628;28;20472;-69
2022/04/12 08:52:11;;;;;;;6.40;5.27;;;12.50;99.90;;;;;;5014875;28;20456;-70
2022/04/12 08:54:38;;;;;;;8.47;6.20;;;12.60;99.90;;;;;;5016976;28;20525;-69
2022/04/12 08:57:04;;;;;;;9.27;6.43;;;12.70;99.90;;;;;;5011808;28;21004;-69
2022/04/12 08:59:30;;;;;;;6.20;5.60;;;12.70;99.90;;;;;;5011335;28;20511;-71
2022/04/12 09:01:57;;;;;;;7.87;6.07;;;12.80;99.90;;;;;;5014573;28;20654;-70
2022/04/12 09:04:26;;;;;;;12.63;6.70;;;12.90;99.90;;;;;;4998548;28;20704;-69
2022/04/12 09:06:56;;;;;;;9.13;6.27;;;13.00;99.90;;;;;;4999480;28;20466;-69
2022/04/12 09:09:24;;;;;;;8.20;6.10;;;13.10;99.90;;;;;;5011679;28;20531;-67
2022/04/12 09:12:10;;;;;;;6.80;6.10;;;13.10;99.90;;;;;;4991441;28;20461;-70
2022/04/12 09:14:42;;;;;;;6.50;5.20;;;13.20;99.90;;;;;;5001751;28;20447;-71
2022/04/12 09:17:19;;;;;;;12.33;6.20;;;13.30;99.90;;;;;;4992966;28;20489;-69
2022/04/12 09:19:51;;;;;;;9.70;6.50;;;13.40;99.90;;;;;;4996475;28;20472;-69
2022/04/12 09:22:18;;;;;;;10.40;6.47;;;13.50;99.90;;;;;;4990410;28;20549;-69
2022/04/12 09:24:57;;;;;;;9.27;5.50;;;13.60;99.90;;;;;;4995828;28;20445;-69
2022/04/12 09:27:26;;;;;;;9.30;5.63;;;13.70;99.90;;;;;;4990119;28;20463;-68
2022/04/12 09:29:54;;;;;;;7.23;5.10;;;13.80;99.90;;;;;;5016516;28;20997;-71
2022/04/12 09:32:25;;;;;;;8.60;4.87;;;14.00;99.90;;;;;;5014079;28;20544;-71
2022/04/12 09:34:51;;;;;;;6.97;5.47;;;14.20;99.90;;;;;;5014999;28;20468;-70
2022/04/12 09:37:31;;;;;;;8.33;5.70;;;14.30;99.90;;;;;;5020081;28;20994;-68
2022/04/12 09:40:00;;;;;;;6.77;5.30;;;14.40;99.90;;;;;;4993422;28;20487;-69
2022/04/12 09:42:50;;;;;;;6.50;5.10;;;14.50;99.90;;;;;;5014603;28;20848;-69
2022/04/12 09:45:27;;;;;;;9.30;5.00;;;14.70;99.90;;;;;;4992336;28;20849;-70
2022/04/12 09:47:55;;;;;;;7.77;4.70;;;14.70;99.90;;;;;;5007319;28;20930;-70
2022/04/12 09:50:26;;;;;;;5.70;4.47;;;14.80;99.90;;;;;;5011697;28;20520;-69
2022/04/12 09:52:54;;;;;;;8.23;5.10;;;14.90;99.90;;;;;;5013404;28;20460;-70
2022/04/12 09:55:41;;;;;;;9.70;5.40;;;14.90;99.90;;;;;;5018549;28;20451;-72
2022/04/12 09:58:15;;;;;;;6.50;4.90;;;15.10;99.90;;;;;;5001169;28;20476;-71
2022/04/12 10:00:42;;;;;;;6.27;4.90;;;15.20;99.90;;;;;;5016370;28;20452;-72
2022/04/12 10:03:10;;;;;;;8.13;4.80;;;15.30;99.70;;;;;;5008908;28;20465;-69
2022/04/12 10:05:36;;;;;;;7.40;6.07;;;15.30;99.50;;;;;;5007114;28;20456;-70
2022/04/12 10:08:04;;;;;;;6.33;4.87;;;15.30;99.60;;;;;;5013470;28;20461;-69
2022/04/12 10:10:30;;;;;;;7.83;5.37;;;15.40;99.70;;;;;;5008663;28;20464;-71
2022/04/12 10:12:57;;;;;;;6.73;5.00;;;15.40;99.40;;;;;;5007029;28;20469;-70
2022/04/12 10:15:25;;;;;;;4.93;4.33;;;15.60;99.50;;;;;;5011130;28;20225;-69
2022/04/12 10:17:51;;;;;;;7.63;5.10;;;15.80;99.60;;;;;;5010137;28;20474;-70
2022/04/12 10:20:18;;;;;;;5.97;4.30;;;16.00;99.40;;;;;;5014612;28;20456;-69
2022/04/12 10:22:45;;;;;;;6.00;4.90;;;16.10;99.00;;;;;;5014125;28;20452;-72
2022/04/12 10:25:15;;;;;;;5.93;4.37;;;16.20;98.90;;;;;;5015598;28;20467;-70
2022/04/12 10:27:41;;;;;;;6.60;4.53;;;16.30;99.00;;;;;;5011591;28;20471;-70
2022/04/12 10:30:33;;;;;;;6.07;3.87;;;16.40;98.90;;;;;;5017030;28;20548;-70
2022/04/12 10:33:15;;;;;;;4.93;4.13;;;16.70;99.20;;;;;;5010608;28;20451;-70
2022/04/12 10:35:51;;;;;;;5.37;3.73;;;16.80;98.70;;;;;;4994344;28;20476;-70
2022/04/12 10:38:22;;;;;;;7.97;4.40;;;16.80;98.80;;;;;;5015976;28;20486;-73
2022/04/12 10:40:49;;;;;;;4.90;3.70;;;16.90;98.40;;;;;;5021425;28;20461;-70
2022/04/12 10:43:21;;;;;;;7.23;4.70;;;17.10;97.60;;;;;;5010208;28;20949;-72
2022/04/12 10:45:49;;;;;;;4.90;3.20;;;17.20;98.40;;;;;;5015397;28;20459;-72
2022/04/12 10:48:28;;;;;;;5.03;3.87;;;17.30;98.00;;;;;;5010579;28;21082;-72
2022/04/12 10:50:56;;;;;;;6.23;4.40;;;17.40;98.10;;;;;;5012594;28;20463;-70
2022/04/12 10:53:37;;;;;;;5.03;4.27;;;17.60;97.30;;;;;;5013850;28;20507;-70
2022/04/12 10:56:24;;;;;;;4.20;3.60;;;17.70;97.80;;;;;;5013166;28;20478;-70
2022/04/12 10:58:49;;;;;;;5.37;4.33;;;17.70;97.60;;;;;;5014329;28;20462;-70
2022/04/12 11:01:35;;;;;;;4.67;4.20;;;17.70;97.30;;;;;;5010576;28;20544;-70
2022/04/12 11:04:03;;;;;;;7.53;4.13;;;17.70;97.20;;;;;;4994250;28;20225;-69
2022/04/12 11:06:31;;;;;;;5.80;4.63;;;17.70;97.30;;;;;;4995071;28;20471;-71
2022/04/12 11:09:07;;;;;;;5.30;4.00;;;17.70;96.80;;;;;;5013995;28;20487;-69
2022/04/12 11:11:44;;;;;;;7.40;3.50;;;17.70;97.10;;;;;;5012520;28;20535;-69
2022/04/12 11:14:32;;;;;;;5.60;4.13;;;17.90;97.30;;;;;;5014627;28;21224;-70
2022/04/12 11:17:06;;;;;;;5.57;4.07;;;18.00;96.90;;;;;;5007499;28;20460;-70
2022/04/12 11:19:47;;;;;;;6.10;4.37;;;18.00;97.10;;;;;;5007995;28;20484;-71
2022/04/12 11:22:17;;;;;;;5.87;4.33;;;18.00;97.00;;;;;;5008574;28;20571;-69
2022/04/12 11:25:03;;;;;;;8.43;3.53;;;18.10;96.80;;;;;;5018179;28;20463;-69
2022/04/12 11:27:29;;;;;;;5.73;4.20;;;18.20;97.20;;;;;;5024120;28;20483;-69
2022/04/12 11:29:57;;;;;;;5.20;3.73;;;18.50;97.10;;;;;;5008826;28;20464;-69
2022/04/12 11:32:25;;;;;;;8.10;4.87;;;18.60;96.90;;;;;;5017008;28;20228;-70
2022/04/12 11:34:51;;;;;;;7.13;4.70;;;18.80;96.10;;;;;;5026219;28;20460;-70
2022/04/12 11:37:17;;;;;;;7.33;4.30;;;18.90;95.90;;;;;;5016678;28;20521;-69
2022/04/12 11:39:44;;;;;;;4.80;3.50;;;19.10;95.10;;;;;;5021774;28;20984;-71
2022/04/12 11:42:14;;;;;;;5.70;3.73;;;19.30;95.10;;;;;;5008626;28;20305;-70
2022/04/12 11:44:49;;;;;;;5.60;4.00;;;19.30;95.50;;;;;;5020939;28;20981;-69
2022/04/12 11:47:15;;;;;;;5.20;3.70;;;19.30;95.80;;;;;;5012176;28;20459;-69
2022/04/12 11:49:42;;;;;;;8.10;3.73;;;19.30;95.90;;;;;;5008841;28;20815;-69
2022/04/12 11:52:13;;;;;;;5.20;3.70;;;19.40;95.80;;;;;;5008854;28;20225;-69
2022/04/12 11:54:51;;;;;;;5.73;4.30;;;19.50;95.20;;;;;;5023989;28;20502;-69
2022/04/12 11:57:22;;;;;;;4.83;3.77;;;19.70;95.50;;;;;;5016013;28;20477;-69
2022/04/12 11:59:59;;;;;;;4.47;3.80;;;19.70;95.30;;;;;;5016858;28;20475;-70
2022/04/12 12:02:30;;;;;;;4.30;3.67;;;19.80;95.50;;;;;;5016973;28;20471;-68
2022/04/12 12:05:05;;;;;;;5.33;3.80;;;19.90;95.10;;;;;;5011002;28;20470;-71
2022/04/12 12:07:35;;;;;;;3.90;3.43;;;20.00;94.80;;;;;;5016719;28;20467;-70
2022/04/12 12:10:14;;;;;;;5.73;4.27;;;20.00;94.10;;;;;;5010446;28;20460;-68
2022/04/12 12:12:41;;;;;;;4.90;4.20;;;20.00;93.70;;;;;;5014325;28;20458;-70
2022/04/12 12:15:22;;;;;;;6.53;4.60;;;20.10;93.60;;;;;;5024268;28;20459;-70
2022/04/12 12:17:49;;;;;;;5.70;4.10;;;20.20;93.00;;;;;;5020209;28;20468;-72
2022/04/12 12:20:17;;;;;;;5.53;4.07;;;20.20;93.10;;;;;;5017278;28;20466;-70
2022/04/12 12:22:46;;;;;;;5.07;4.40;;;20.20;94.20;;;;;;5013593;28;20934;-71
2022/04/12 12:25:18;;;;;;;5.07;4.20;;;20.20;94.80;;;;;;5012781;28;20808;-68
2022/04/12 12:27:48;;;;;;;6.17;4.13;;;20.30;93.80;;;;;;5015828;28;20451;-69
2022/04/12 12:30:17;;;;;;;6.37;4.43;;;20.50;95.00;;;;;;5026932;28;20489;-69
2022/04/12 12:32:43;;;;;;;5.90;3.93;;;20.70;93.00;;;;;;5009032;28;20452;-68
2022/04/12 12:35:11;;;;;;;6.80;4.80;;;20.70;94.00;;;;;;5014577;28;20452;-68
2022/04/12 12:37:39;;;;;;;6.97;4.10;;;20.70;92.60;;;;;;5003232;28;20444;-70
2022/04/12 12:40:18;;;;;;;9.17;5.33;;;20.70;93.10;;;;;;5012942;28;20472;-70
2022/04/12 12:42:44;;;;;;;4.80;4.00;;;20.90;93.60;;;;;;5016735;28;20865;-70
2022/04/12 12:45:12;;;;;;;5.10;4.17;;;21.00;94.50;;;;;;5017143;28;20456;-69
2022/04/12 12:47:41;;;;;;;5.20;4.27;;;21.00;94.00;;;;;;5022685;28;20456;-69
2022/04/12 12:50:12;;;;;;;6.43;4.13;;;20.90;93.30;;;;;;5013056;28;20472;-69
2022/04/12 12:52:39;;;;;;;3.93;3.53;;;20.80;93.70;;;;;;4994719;28;20451;-70
2022/04/12 12:55:13;;;;;;;5.57;4.07;;;20.90;93.50;;;;;;5014647;28;20958;-69